Latest Weather Observations for Spitfire Channel

IDQ60901

Issued at 11:21 am EST Saturday 1 October 2016 (issued every 10 minutes, with the page automatically refreshed every 10 minutes)

About weather observations | Map of Brisbane area stations | Latest observations for Brisbane area | Other Formats
Station Details ID: 040927 Name: SPITFIRE CHANNEL BEACON Lat: -27.05 Lon: 153.27 Height: 7.0 m
Data from the previous 72 hours. | See also: Recent months for locations in Queensland
Date/Time
EST
Temp
°C
App
Temp
°C
Dew
Point
°C
Rel
Hum
%
Delta-T
°C
Wind Press
QNH
hPa
Press
MSL
hPa
Rain since
9am
mm
Dir  Spd
km/h
Gust
km/h
Spd
kts
Gust
kts
01/11:00am - - - - - WSW 24 35 13 19 - - -
01/10:30am - - - - - WSW 22 33 12 18 - - -
01/10:03am - - - - - SW 28 50 15 27 - - -
01/10:00am - - - - - SW 26 37 14 20 - - -
01/09:30am - - - - - WSW 15 20 8 11 - - -
01/09:00am - - - - - WSW 15 22 8 12 - - -
01/08:30am - - - - - WNW 17 20 9 11 - - -
01/08:00am - - - - - WNW 15 19 8 10 - - -
01/07:30am - - - - - W 17 19 9 10 - - -
01/07:00am - - - - - W 19 22 10 12 - - -
01/06:30am - - - - - WNW 19 22 10 12 - - -
01/06:00am - - - - - W 15 17 8 9 - - -
01/05:30am - - - - - W 13 15 7 8 - - -
01/05:00am - - - - - W 13 15 7 8 - - -
01/04:30am - - - - - W 11 13 6 7 - - -
01/04:00am - - - - - W 15 17 8 9 - - -
01/03:30am - - - - - WSW 17 20 9 11 - - -
01/03:00am - - - - - W 22 24 12 13 - - -
01/02:30am - - - - - WNW 22 26 12 14 - - -
01/02:00am - - - - - WNW 19 22 10 12 - - -
01/01:30am - - - - - WNW 19 20 10 11 - - -
01/01:00am - - - - - W 19 20 10 11 - - -
01/12:30am - - - - - W 19 20 10 11 - - -
01/12:00am - - - - - W 19 22 10 12 - - -
 
Date/Time
EST
Temp
°C
App
Temp
°C
Dew
Point
°C
Rel
Hum
%
Delta-T
°C
Wind Press
QNH
hPa
Press
MSL
hPa
Rain since
9am
mm
Dir  Spd
km/h
Gust
km/h
Spd
kts
Gust
kts
30/11:30pm - - - - - WNW 11 17 6 9 - - -
30/11:00pm - - - - - W 15 19 8 10 - - -
30/10:30pm - - - - - W 22 28 12 15 - - -
30/10:00pm - - - - - W 19 24 10 13 - - -
30/09:30pm - - - - - W 9 15 5 8 - - -
30/09:00pm - - - - - WSW 22 28 12 15 - - -
30/08:30pm - - - - - WSW 13 17 7 9 - - -
30/08:00pm - - - - - SW 22 24 12 13 - - -
30/07:30pm - - - - - WSW 17 22 9 12 - - -
30/07:00pm - - - - - WSW 26 33 14 18 - - -
30/06:30pm - - - - - SW 28 35 15 19 - - -
30/06:00pm - - - - - SW 24 30 13 16 - - -
30/05:30pm - - - - - SW 26 32 14 17 - - -
30/05:00pm - - - - - WSW 24 30 13 16 - - -
30/04:39pm - - - - - WSW 32 41 17 22 - - -
30/04:30pm - - - - - W 37 46 20 25 - - -
30/04:00pm - - - - - WSW 32 39 17 21 - - -
30/03:30pm - - - - - WSW 28 37 15 20 - - -
30/03:00pm - - - - - WSW 28 33 15 18 - - -
30/02:30pm - - - - - WSW 24 32 13 17 - - -
30/02:00pm - - - - - WSW 26 32 14 17 - - -
30/01:30pm - - - - - WNW 4 7 2 4 - - -
30/01:00pm - - - - - NNW 11 20 6 11 - - -
30/12:30pm - - - - - W 24 30 13 16 - - -
30/12:00pm - - - - - WSW 22 30 12 16 - - -
30/11:30am - - - - - W 24 32 13 17 - - -
30/11:00am - - - - - W 30 37 16 20 - - -
30/10:30am - - - - - W 30 37 16 20 - - -
30/10:00am - - - - - WSW 26 33 14 18 - - -
30/09:30am - - - - - W 28 35 15 19 - - -
30/09:00am - - - - - SW 24 28 13 15 - - -
30/08:30am - - - - - WSW 24 28 13 15 - - -
30/08:00am - - - - - WSW 28 33 15 18 - - -
30/07:30am - - - - - W 20 26 11 14 - - -
30/07:00am - - - - - W 17 19 9 10 - - -
30/06:30am - - - - - W 11 15 6 8 - - -
30/06:00am - - - - - W 11 13 6 7 - - -
30/05:30am - - - - - NW 6 11 3 6 - - -
30/05:00am - - - - - NW 9 15 5 8 - - -
30/04:30am - - - - - NW 13 22 7 12 - - -
30/04:00am - - - - - NW 24 37 13 20 - - -
30/03:30am - - - - - WNW 41 65 22 35 - - -
30/03:23am - - - - - NNW 43 65 23 35 - - -
30/03:21am - - - - - NNW 41 48 22 26 - - -
30/03:00am - - - - - NNW 33 43 18 23 - - -
30/02:30am - - - - - NNW 32 37 17 20 - - -
30/02:00am - - - - - NNW 35 43 19 23 - - -
30/01:30am - - - - - NNW 35 43 19 23 - - -
30/01:00am - - - - - NNW 37 44 20 24 - - -
30/12:30am - - - - - NW 32 44 17 24 - - -
30/12:00am - - - - - NNW 33 39 18 21 - - -
 
Date/Time
EST
Temp
°C
App
Temp
°C
Dew
Point
°C
Rel
Hum
%
Delta-T
°C
Wind Press
QNH
hPa
Press
MSL
hPa
Rain since
9am
mm
Dir  Spd
km/h
Gust
km/h
Spd
kts
Gust
kts
29/11:30pm - - - - - NNW 28 32 15 17 - - -
29/11:00pm - - - - - NNW 33 41 18 22 - - -
29/10:30pm - - - - - NNW 37 44 20 24 - - -
29/10:00pm - - - - - NNW 37 46 20 25 - - -
29/09:30pm - - - - - NNW 37 44 20 24 - - -
29/09:00pm - - - - - NNW 37 44 20 24 - - -
29/08:30pm - - - - - NNW 37 48 20 26 - - -
29/08:00pm - - - - - NNW 44 54 24 29 - - -
29/07:30pm - - - - - NNW 44 57 24 31 - - -
29/07:00pm - - - - - NNW 41 52 22 28 - - -
29/06:30pm - - - - - NNW 41 50 22 27 - - -
29/06:00pm - - - - - NNW 43 50 23 27 - - -
29/05:30pm - - - - - NNW 26 32 14 17 - - -
29/05:00pm - - - - - NW 20 28 11 15 - - -
29/04:30pm - - - - - NW 9 13 5 7 - - -
29/04:00pm - - - - - WNW 15 17 8 9 - - -
29/03:30pm - - - - - WNW 19 24 10 13 - - -
29/03:00pm - - - - - NW 20 30 11 16 - - -
29/02:30pm - - - - - NNW 24 28 13 15 - - -
29/02:00pm - - - - - NNW 33 39 18 21 - - -
29/01:30pm - - - - - N 32 39 17 21 - - -
29/01:00pm - - - - - NNW 30 37 16 20 - - -
29/12:30pm - - - - - NNW 30 35 16 19 - - -
29/12:00pm - - - - - NNW 35 43 19 23 - - -
29/11:30am - - - - - NNW 33 39 18 21 - - -
29/11:00am - - - - - NNW 30 33 16 18 - - -
29/10:30am - - - - - NNW 26 33 14 18 - - -
29/10:00am - - - - - NNW 30 37 16 20 - - -
29/09:30am - - - - - NNW 32 37 17 20 - - -
29/09:00am - - - - - NNW 28 35 15 19 - - -
29/08:30am - - - - - NNW 30 35 16 19 - - -
29/08:00am - - - - - NNW 32 37 17 20 - - -
29/07:30am - - - - - NNW 32 37 17 20 - - -
29/07:00am - - - - - NNW 28 33 15 18 - - -
29/06:30am - - - - - NNW 26 32 14 17 - - -
29/06:00am - - - - - NNW 32 35 17 19 - - -
29/05:30am - - - - - NNW 26 30 14 16 - - -
29/05:00am - - - - - NNW 26 30 14 16 - - -
29/04:30am - - - - - NNW 26 32 14 17 - - -
29/04:00am - - - - - NNW 28 32 15 17 - - -
29/03:30am - - - - - NNW 28 32 15 17 - - -
29/03:00am - - - - - NNW 26 30 14 16 - - -
29/02:30am - - - - - NNW 24 26 13 14 - - -
29/02:00am - - - - - NNW 20 24 11 13 - - -
29/01:30am - - - - - NNW 11 15 6 8 - - -
29/01:00am - - - - - N 17 19 9 10 - - -
29/12:30am - - - - - N 13 17 7 9 - - -
29/12:00am - - - - - N 11 15 6 8 - - -
 
Date/Time
EST
Temp
°C
App
Temp
°C
Dew
Point
°C
Rel
Hum
%
Delta-T
°C
Wind Press
QNH
hPa
Press
MSL
hPa
Rain since
9am
mm
Dir  Spd
km/h
Gust
km/h
Spd
kts
Gust
kts
28/11:30pm - - - - - N 13 17 7 9 - - -
28/11:00pm - - - - - N 20 24 11 13 - - -
28/10:30pm - - - - - N 20 22 11 12 - - -
28/10:00pm - - - - - N 20 24 11 13 - - -
28/09:30pm - - - - - N 20 24 11 13 - - -
28/09:00pm - - - - - NNE 20 24 11 13 - - -
28/08:30pm - - - - - NNE 22 26 12 14 - - -
28/08:00pm - - - - - NNE 22 26 12 14 - - -
28/07:30pm - - - - - NNE 20 24 11 13 - - -
28/07:00pm - - - - - NNE 20 24 11 13 - - -
28/06:30pm - - - - - NE 20 26 11 14 - - -
28/06:00pm - - - - - NE 22 26 12 14 - - -
28/05:30pm - - - - - NE 22 24 12 13 - - -
28/05:00pm - - - - - NE 15 19 8 10 - - -
28/04:30pm - - - - - NE 17 20 9 11 - - -
28/04:00pm - - - - - NE 22 26 12 14 - - -
28/03:30pm - - - - - NE 24 28 13 15 - - -
28/03:00pm - - - - - NE 24 30 13 16 - - -
28/02:30pm - - - - - NE 26 30 14 16 - - -
28/02:00pm - - - - - NE 24 30 13 16 - - -
28/01:30pm - - - - - NE 20 26 11 14 - - -
28/01:00pm - - - - - NNE 13 17 7 9 - - -
28/12:30pm - - - - - E 9 11 5 6 - - -
28/12:00pm - - - - - E 9 11 5 6 - - -
28/11:30am - - - - - SE 4 6 2 3 - - -

Latest Capital City Observations: Canberra | Sydney | Melbourne | Brisbane | Adelaide | Perth | Hobart | Darwin

Other Formats:

Comma delimited format used in spreadsheet applications
http://www.bom.gov.au/fwo/IDQ60901/IDQ60901.94581.axf

JavaScript Object Notation format (JSON) in row-major order
http://www.bom.gov.au/fwo/IDQ60901/IDQ60901.94581.json